Greymouth, New Zealand
Current Conditions -  °F | °C
As of 8:00 PM on Thursday 23 Oct 2014 (Local Time) from NZCH Reporting Station
Clear Clear  
Wind Chill: 63°   Ceiling: Unl
Heat Index: 63°   Visibility: 6mi
Dew Point: 36°   Wind: 9mph
Humidity: 37%   Direction: 270°W
Pressure: 29.62"   Gusts: NA
Location:  42.46°S, 171.21°E
Report Text: NZCH 230800Z AUTO 27008KT 230V300 9999 NCD 17/02 Q1003 NOSIG
Loading
Personal Weather Stations






























Interactive Weather Map
Tropical Storm Tracking
New forecast layout! Learn more

10-Day Weather Forecast

Advertisements
Track Severe Weather on mobile